Nearby METAR Reports


Data Updates Approximately Every Four Hours

METAR is the international standard code format for hourly surface weather observations which is analogous to the SA coding currently used in the US. The acronym roughly translates from French as Aviation Routine Weather Report. SPECI is merely the code name given to METAR formatted products which are issued on a special non-routine basis as dictated by changing meteorological conditions. The SPECI acronym roughly translates as Aviation Selected Special Weather Report.

KSLH - Cheboygan, Michigan, USA
Distance from station: W 9mi, 14km
Updated: 06/20/2019 2:57am
Clear
Clear
 Wind from NW
Wind: NW 3 mph , 6 km/h
Temperature: 52°F , 11°C
Dew Point: 48°F , 9°C
Humidity: 88%
Barometer: 29.74 inHg , 1007.1 hPa
Clouds: Clear
Visibility: 10 miles , 16 km
2019/06/20 06:57 KSLH 200657Z AUTO 31003KT 10SM CLR 11/09 A2974 RMK AO2 T01090093
KMCD - Mackinac Island, Michigan, USA
Distance from station: NW 19mi, 31km
Updated: 06/20/2019 2:58am
Partly cloudy
Partly cloudy
 Wind from NNE
Wind: NNE 8 mph , 13 km/h
Temperature: 54°F , 12°C
Dew Point: 48°F , 9°C
Humidity: 82%
Barometer: 29.75 inHg , 1007.5 hPa
Clouds: Partly cloudy
Visibility: 10 miles , 16 km
Cloud details: Partly cloudy 8000 ft
2019/06/20 06:58 KMCD 200658Z AUTO 02007KT 10SM SCT080 12/09 A2975 RMK AO2 T01200090
 
KPLN - Pellston, Michigan, USA
Distance from station: WSW 24mi, 38km
Updated: 06/20/2019 2:54am
Clear
Clear
 Wind from calm
Wind: Calm
Temperature: 50°F , 10°C
Dew Point: 48°F , 9°C
Humidity: 94%
Barometer: 29.75 inHg , 1007.5 hPa
Clouds: Clear
Visibility: 10 miles , 16 km
2019/06/20 06:54 KPLN 200654Z AUTO 00000KT 10SM CLR 10/09 A2975 RMK AO2 SLP074 T01000089
KPZQ - Rogers City, Michigan, USA
Distance from station: SE 31mi, 50km
Updated: 06/20/2019 2:57am
Partly cloudy
Partly cloudy
 Wind from calm
Wind: Calm
Temperature: 52°F , 11°C
Dew Point: 50°F , 10°C
Humidity: 94%
Barometer: 29.75 inHg , 1007.5 hPa
Clouds: Partly cloudy
Visibility: 10 miles , 16 km
Cloud details: Partly cloudy 4400 ft
2019/06/20 06:57 KPZQ 200657Z AUTO 00000KT 10SM SCT044 11/10 A2975 RMK AO2 T01100103
 
KMGN - Harbor Springs, Michigan, USA
Distance from station: WSW 32mi, 52km
Updated: 06/20/2019 2:56am
Clear
Clear
 Wind from calm
Wind: Calm
Temperature: 52°F , 11°C
Dew Point: 50°F , 10°C
Humidity: 94%
Barometer: 29.74 inHg , 1007.1 hPa
Clouds: Clear
Visibility: 10 miles , 16 km
2019/06/20 06:56 KMGN 200656Z AUTO 00000KT 10SM CLR 11/10 A2974 RMK AO2 T01180102
KDRM - Drummond Is, Michigan, USA
Distance from station: NE 36mi, 59km
Updated: 06/20/2019 2:58am
Clear
Clear
 Wind from calm
Wind: Calm
Temperature: 55°F , 13°C
Dew Point: 54°F , 12°C
Humidity: 94%
Barometer: 29.75 inHg , 1007.5 hPa
Clouds: Clear
Visibility: 10 miles , 16 km
2019/06/20 06:58 KDRM 200658Z AUTO 00000KT 10SM CLR 13/12 A2975 RMK AO2 T01250122
 
KCIU - Chippewa Intl, Michigan, USA
Distance from station: N 41mi, 66km
Updated: 06/20/2019 2:56am
Clear
Clear
 Wind from N
Wind: N 8 mph , 13 km/h
Temperature: 50°F , 10°C
Wind Chill: 47°F , 8°C
Dew Point: 46°F , 8°C
Humidity: 88%
Barometer: 29.78 inHg , 1008.5 hPa
Clouds: Clear
Visibility: 10 miles , 16 km
2019/06/20 06:56 KCIU 200656Z AUTO 01007KT 10SM CLR 10/08 A2978 RMK AO2 SLP081 T01000078
KGLR - Gaylord, Michigan, USA
Distance from station: SSW 48mi, 77km
Updated: 06/20/2019 2:53am
Clear
Clear
 Wind from NE
Wind: NE 6 mph , 9 km/h
Temperature: 55°F , 13°C
Dew Point: 52°F , 11°C
Humidity: 88%
Barometer: 29.74 inHg , 1007.1 hPa
Clouds: Clear
Visibility: 10 miles , 16 km
2019/06/20 06:53 KGLR 200653Z AUTO 04005KT 10SM CLR 13/11 A2974 RMK AO2 SLP068 T01280111
 
KCVX - Charlevoix, Michigan, USA
Distance from station: WSW 52mi, 83km
Updated: 06/20/2019 2:55am
Clear
Clear
 Wind from calm
Wind: Calm
Temperature: 55°F , 13°C
Dew Point: 50°F , 10°C
Humidity: 82%
Barometer: 29.76 inHg , 1007.8 hPa
Clouds: Clear
Visibility: 10 miles , 16 km
2019/06/20 06:55 KCVX 200655Z AUTO 00000KT 10SM CLR 13/10 A2976 RMK AO2 T01250096
KANJ - Sault Ste Marie, Michigan, USA
Distance from station: N 56mi, 89km
Updated: 06/20/2019 2:55am
Clear
Clear
 Wind from calm
Wind: Calm
Temperature: 52°F , 11°C
Dew Point: 48°F , 9°C
Humidity: 88%
Barometer: 29.77 inHg , 1008.1 hPa
Clouds: Clear
Visibility: 10 miles , 16 km
2019/06/20 06:55 KANJ 200655Z AUTO 00000KT 10SM CLR 11/09 A2977 RMK AO2 SLP079 T01110089
 
KAPN - Alpena, Michigan, USA
Distance from station: SE 56mi, 89km
Updated: 06/20/2019 2:54am
Clear
Clear
 Wind from NW
Wind: NW 3 mph , 6 km/h
Temperature: 52°F , 11°C
Dew Point: 48°F , 9°C
Humidity: 88%
Barometer: 29.73 inHg , 1006.8 hPa
Clouds: Clear
Visibility: 10 miles , 16 km
2019/06/20 06:54 KAPN 200654Z AUTO 32003KT 10SM CLR 11/09 A2973 RMK AO2 SLP068 T01060094
CYAM - Sault Ste Marie, Ontario, Canada
Distance from station: N 56mi, 90km
Updated: 06/20/2019 2:00am
Few Clouds
Few Clouds
 Wind from NW
Wind: NW 7 mph , 11 km/h
Temperature: 48°F , 9°C
Wind Chill: 45°F , 7°C
Dew Point: 46°F , 8°C
Humidity: 94%
Barometer: 29.78 inHg , 1008.5 hPa
Clouds: Few Clouds
Visibility: 25 miles , 40 km
Cloud details: Few Clouds 28000 ft
2019/06/20 06:00 CYAM 200600Z 31006KT 25SM FEW280 09/08 A2978 RMK CI2 SLP088
 
KSJX - Beaver Island, Michigan, USA
Distance from station: W 60mi, 96km
Updated: 06/20/2019 2:59am
Clear
Clear
 Wind from NE
Wind: NE 6 mph , 9 km/h
Temperature: 54°F , 12°C
Dew Point: 46°F , 8°C
Humidity: 77%
Barometer: 29.75 inHg , 1007.5 hPa
Clouds: Clear
Visibility: 10 miles , 16 km
2019/06/20 06:59 KSJX 200659Z AUTO 05005KT 10SM CLR 12/08 A2975 RMK AO2 T01220080
KACB - Bellaire, Michigan, USA
Distance from station: SW 63mi, 102km
Updated: 06/20/2019 2:56am
Clear
Clear
 Wind from calm
Wind: Calm
Temperature: 57°F , 14°C
Dew Point: 54°F , 12°C
Humidity: 88%
Barometer: 29.73 inHg , 1006.8 hPa
Clouds: Clear
Visibility: 10 miles , 16 km
2019/06/20 06:56 KACB 200656Z AUTO 00000KT 10SM CLR 14/12 A2973 RMK AO2 T01420117
 
CWNL - Great Duck Island, Ontario, Canada
Distance from station: E 66mi, 106km
Updated: 06/20/2019 2:00am

 Wind from N
Wind: N 3 mph , 6 km/h
Temperature: 57°F , 14°C
Dew Point: 55°F , 13°C
Humidity: 94%
2019/06/20 06:00 CWNL 200600Z AUTO 01003KT 14/13 RMK AO1 SLP069 T01400127 58011
KERY - Newberry, Michigan, USA
Distance from station: NW 69mi, 112km
Updated: 06/20/2019 2:57am
Clear
Clear
 Wind from N
Wind: N 6 mph , 9 km/h
Temperature: 48°F , 9°C
Wind Chill: 45°F , 7°C
Dew Point: 45°F , 7°C
Humidity: 87%
Barometer: 29.78 inHg , 1008.5 hPa
Clouds: Clear
Visibility: 10 miles , 16 km
2019/06/20 06:57 KERY 200657Z AUTO 36005KT 10SM CLR 09/07 A2978 RMK AO2 T00850071
 
KGOV - Grayling Af, Michigan, USA
Distance from station: SSW 70mi, 113km
Updated: 06/20/2019 2:58am
Few Clouds
Few Clouds
 Wind from calm
Wind: Calm
Temperature: 52°F , 11°C
Dew Point: 52°F , 11°C
Humidity: 100%
Barometer: 29.71 inHg , 1006.1 hPa
Clouds: Few Clouds
Visibility: 10 miles , 16 km
Cloud details: Few Clouds 25000 ft
2019/06/20 06:58 KGOV 200658Z AUTO 00000KT 10SM FEW250 11/11 A2971 RMK AO2 SLP066 T01090107 $